Terminal Aerodrome Forecast
Issued by NWS

Home | Current Version | Previous Version | Text Only | Print | Product List | Glossary On
Versions: 1 2 3 4 5 6 7 8 9 10 11 12 13 14 15 16 17 18 19 20 21 22 23 24 25 26 27 28 29 30
000
FTUS45 KLKN 202322
TAFEKO
TAF
KEKO 202322Z 2100/2124 05006KT 3SM -SHSN SCT010 OVC040
      TEMPO 2100/2102 1/2SM SN FZFG OVC008
     FM210700 20008KT 6SM BR VCSH SCT020 OVC050
      TEMPO 2109/2113 3SM -SN BR BKN016=

USA.gov is the U.S. government's official web portal to all federal, state and local government web resources and services.